Time;durP1;ratioP1;P1;durP2;ratioP2;P2;SDS_P1;SDS_P2;PMS_P1;PMS_P2;Temp;Humidity;BMP_temperature;BMP_pressure;BME280_temperature;BME280_humidity;BME280_pressure;Samples;Min_cycle;Max_cycle;Signal;HPM_P1;HPM_P2
2023/07/12 00:00:22;;;;;;;10.55;3.88;;;18.70;99.90;;;;;;5105411;28;20176;-65
2023/07/12 00:02:49;;;;;;;10.43;4.20;;;18.70;99.90;;;;;;5101422;28;20530;-65
2023/07/12 00:05:16;;;;;;;10.40;4.40;;;18.70;99.90;;;;;;5106132;28;20054;-65
2023/07/12 00:07:45;;;;;;;9.95;4.72;;;18.70;99.90;;;;;;5105043;28;20043;-65
2023/07/12 00:10:16;;;;;;;9.88;5.10;;;18.70;99.90;;;;;;5106623;28;20043;-65
2023/07/12 00:12:45;;;;;;;9.93;4.90;;;18.60;99.90;;;;;;5089876;28;20039;-65
2023/07/12 00:15:15;;;;;;;9.73;4.53;;;18.60;99.90;;;;;;5123841;28;20473;-65
2023/07/12 00:17:41;;;;;;;9.32;4.00;;;18.50;99.90;;;;;;5106567;27;20039;-65
2023/07/12 00:20:22;;;;;;;9.13;3.72;;;18.50;99.90;;;;;;5127747;27;20081;-65
2023/07/12 00:22:48;;;;;;;6.30;3.40;;;18.50;99.90;;;;;;5108188;27;20710;-66
2023/07/12 00:25:15;;;;;;;7.30;3.70;;;18.50;99.90;;;;;;5109322;27;20071;-65
2023/07/12 00:27:41;;;;;;;8.40;3.45;;;18.40;99.90;;;;;;5108673;27;20054;-64
2023/07/12 00:30:16;;;;;;;8.40;3.15;;;18.40;99.90;;;;;;5127042;27;20042;-65
2023/07/12 00:32:42;;;;;;;6.82;3.78;;;18.30;99.90;;;;;;5108789;27;20077;-64
2023/07/12 00:35:12;;;;;;;8.27;3.38;;;18.30;99.90;;;;;;5126852;27;20067;-65
2023/07/12 00:37:37;;;;;;;6.65;3.38;;;18.30;99.90;;;;;;5125119;27;20118;-64
2023/07/12 00:40:15;;;;;;;8.32;3.70;;;18.30;99.90;;;;;;5128720;27;20135;-64
2023/07/12 00:42:45;;;;;;;8.98;3.42;;;18.30;99.90;;;;;;5127883;27;20492;-66
2023/07/12 00:45:12;;;;;;;8.40;3.30;;;18.20;99.90;;;;;;5108082;27;20071;-64
2023/07/12 00:47:39;;;;;;;8.35;3.53;;;18.20;99.90;;;;;;5107889;27;20245;-64
2023/07/12 00:50:25;;;;;;;7.28;3.53;;;18.20;99.90;;;;;;5125995;27;20035;-65
2023/07/12 00:52:51;;;;;;;8.18;3.30;;;18.10;99.90;;;;;;5107018;27;20126;-65
2023/07/12 00:55:50;;;;;;;5.90;3.40;;;18.10;99.90;;;;;;5127689;27;20151;-63
2023/07/12 00:58:16;;;;;;;6.35;3.28;;;18.10;99.90;;;;;;5107744;27;20027;-63
2023/07/12 01:00:42;;;;;;;6.78;3.58;;;18.10;99.90;;;;;;5109135;27;20513;-65
2023/07/12 01:03:12;;;;;;;9.52;3.35;;;18.00;99.90;;;;;;5107605;27;20570;-64
2023/07/12 01:05:39;;;;;;;7.82;3.53;;;18.00;99.90;;;;;;5109123;27;20039;-63
2023/07/12 01:08:05;;;;;;;8.85;3.80;;;18.00;99.90;;;;;;5107387;27;20074;-62
2023/07/12 01:10:31;;;;;;;9.25;3.35;;;18.00;99.90;;;;;;5108400;27;20525;-65
2023/07/12 01:12:57;;;;;;;9.77;3.78;;;18.00;99.90;;;;;;5107522;27;20405;-63
2023/07/12 01:15:23;;;;;;;7.05;3.63;;;18.00;99.90;;;;;;5109260;27;20039;-64
2023/07/12 01:17:49;;;;;;;9.40;3.80;;;17.90;99.90;;;;;;5107930;27;20047;-63
2023/07/12 01:20:14;;;;;;;7.25;3.78;;;17.90;99.90;;;;;;5127513;27;20320;-64
2023/07/12 01:22:40;;;;;;;9.63;3.75;;;17.90;99.90;;;;;;5126861;27;20035;-64
2023/07/12 01:25:05;;;;;;;10.85;3.78;;;17.90;99.90;;;;;;5127065;27;20082;-65
2023/07/12 01:27:31;;;;;;;8.98;3.78;;;17.90;99.90;;;;;;5090615;27;20104;-61
2023/07/12 01:29:57;;;;;;;14.18;4.75;;;17.90;99.90;;;;;;5107868;27;20035;-62
2023/07/12 01:32:24;;;;;;;9.27;4.00;;;17.90;99.90;;;;;;5126487;27;20122;-61
2023/07/12 01:34:50;;;;;;;9.90;4.45;;;17.90;99.90;;;;;;5108897;27;20515;-62
2023/07/12 01:37:15;;;;;;;8.52;4.35;;;17.80;99.90;;;;;;5107054;27;20041;-62
2023/07/12 01:39:41;;;;;;;9.80;4.20;;;17.80;99.90;;;;;;5108042;27;20439;-63
2023/07/12 01:42:06;;;;;;;10.32;4.28;;;17.90;99.90;;;;;;5107718;27;20043;-63
2023/07/12 01:44:32;;;;;;;9.00;4.60;;;17.80;99.90;;;;;;5126849;27;20067;-64
2023/07/12 01:46:58;;;;;;;8.65;4.53;;;17.80;99.90;;;;;;5090888;27;20373;-63
2023/07/12 01:49:23;;;;;;;8.00;4.40;;;17.80;99.90;;;;;;5126560;27;20082;-62
2023/07/12 01:51:49;;;;;;;11.02;4.93;;;17.80;99.90;;;;;;5127214;27;20050;-65
2023/07/12 01:54:15;;;;;;;10.60;4.32;;;17.70;99.90;;;;;;5125794;27;20390;-64
2023/07/12 01:56:41;;;;;;;12.02;4.65;;;17.70;99.90;;;;;;5107470;27;20053;-63
2023/07/12 01:59:06;;;;;;;10.13;4.57;;;17.80;99.90;;;;;;5108793;27;20047;-61
2023/07/12 02:01:32;;;;;;;8.88;4.40;;;17.70;99.90;;;;;;5087624;28;20108;-61
2023/07/12 02:03:57;;;;;;;13.18;4.68;;;17.70;99.90;;;;;;5087810;28;20110;-61
2023/07/12 02:06:23;;;;;;;12.30;4.82;;;17.70;99.90;;;;;;5087706;28;20100;-62
2023/07/12 02:08:49;;;;;;;9.38;4.72;;;17.70;99.90;;;;;;5096241;28;20206;-64
2023/07/12 02:11:15;;;;;;;13.07;5.07;;;17.70;99.90;;;;;;5070103;28;20118;-60
2023/07/12 02:13:41;;;;;;;10.73;5.10;;;17.70;99.90;;;;;;5109859;27;20047;-60
2023/07/12 02:16:06;;;;;;;10.98;4.72;;;17.60;99.90;;;;;;5125634;27;20051;-62
2023/07/12 02:18:32;;;;;;;9.88;5.00;;;17.60;99.90;;;;;;5107161;27;20115;-61
2023/07/12 02:20:57;;;;;;;11.45;5.63;;;17.60;99.90;;;;;;5125542;27;20293;-62
2023/07/12 02:23:23;;;;;;;13.23;6.07;;;17.60;99.90;;;;;;5106382;27;20054;-64
2023/07/12 02:25:48;;;;;;;13.18;5.85;;;17.60;99.90;;;;;;5107100;27;20043;-62
2023/07/12 02:28:14;;;;;;;11.48;6.13;;;17.60;99.90;;;;;;5124626;27;20083;-61
2023/07/12 02:30:44;;;;;;;13.02;5.40;;;17.60;99.90;;;;;;5090928;27;20543;-65
2023/07/12 02:33:10;;;;;;;12.52;6.43;;;17.50;99.90;;;;;;5106725;27;20074;-63
2023/07/12 02:35:39;;;;;;;12.30;5.72;;;17.50;99.90;;;;;;5106664;27;20089;-64
2023/07/12 02:38:05;;;;;;;11.88;5.55;;;17.50;99.90;;;;;;5124247;27;20522;-63
2023/07/12 02:40:31;;;;;;;13.02;6.07;;;17.40;99.90;;;;;;5106270;27;20047;-68
2023/07/12 02:42:56;;;;;;;13.05;5.68;;;17.40;99.90;;;;;;5125075;27;20092;-62
2023/07/12 02:45:22;;;;;;;12.32;6.20;;;17.40;99.90;;;;;;5089444;27;20023;-62
2023/07/12 02:47:48;;;;;;;12.77;5.22;;;17.40;99.90;;;;;;5105333;27;20035;-63
2023/07/12 02:50:14;;;;;;;10.15;5.88;;;17.40;99.90;;;;;;5124265;27;20512;-63
2023/07/12 02:52:39;;;;;;;15.25;6.13;;;17.40;99.90;;;;;;5106279;27;20043;-62
2023/07/12 02:55:05;;;;;;;11.82;5.75;;;17.40;99.90;;;;;;5089808;27;20071;-63
2023/07/12 02:57:31;;;;;;;15.80;6.47;;;17.30;99.90;;;;;;5088616;27;20039;-69
2023/07/12 02:59:57;;;;;;;14.60;6.13;;;17.30;99.90;;;;;;5089386;27;20043;-61
2023/07/12 03:02:22;;;;;;;10.95;5.82;;;17.30;99.90;;;;;;5105891;27;20054;-63
2023/07/12 03:04:48;;;;;;;16.52;5.45;;;17.30;99.90;;;;;;5089386;27;20051;-64
2023/07/12 03:07:13;;;;;;;17.10;5.63;;;17.20;99.90;;;;;;5124809;27;20039;-66
2023/07/12 03:09:39;;;;;;;13.18;6.15;;;17.20;99.90;;;;;;5123827;27;20603;-62
2023/07/12 03:12:05;;;;;;;12.18;4.82;;;17.20;99.90;;;;;;5124134;27;20062;-63
2023/07/12 03:14:31;;;;;;;13.10;5.43;;;17.20;99.90;;;;;;5107177;27;20053;-64
2023/07/12 03:16:57;;;;;;;15.77;4.95;;;17.20;99.90;;;;;;5106566;27;20043;-60
2023/07/12 03:19:23;;;;;;;16.35;6.25;;;17.10;99.90;;;;;;5105711;27;20150;-63
2023/07/12 03:21:49;;;;;;;18.30;6.25;;;17.10;99.90;;;;;;5106657;28;20049;-62
2023/07/12 03:24:14;;;;;;;17.85;5.40;;;17.10;99.90;;;;;;5123769;28;20541;-61
2023/07/12 03:26:40;;;;;;;13.75;5.72;;;17.10;99.90;;;;;;5107016;28;20390;-62
2023/07/12 03:29:06;;;;;;;16.15;5.97;;;17.00;99.90;;;;;;5118084;28;20046;-64
2023/07/12 03:31:32;;;;;;;19.33;5.47;;;17.00;99.90;;;;;;5088450;28;20038;-63
2023/07/12 03:33:59;;;;;;;17.92;5.72;;;17.00;99.90;;;;;;5106612;28;20038;-63
2023/07/12 03:36:31;;;;;;;14.60;5.97;;;17.00;99.90;;;;;;5106832;28;20521;-64
2023/07/12 03:38:58;;;;;;;22.48;6.32;;;16.90;99.90;;;;;;5104084;28;20117;-63
2023/07/12 03:41:24;;;;;;;18.52;6.10;;;16.90;99.90;;;;;;5106015;28;20055;-65
2023/07/12 03:43:50;;;;;;;14.77;5.25;;;16.90;99.90;;;;;;5106490;28;20031;-62
2023/07/12 03:46:16;;;;;;;20.40;6.28;;;16.90;99.90;;;;;;5105863;28;20398;-63
2023/07/12 03:48:43;;;;;;;17.48;6.03;;;16.90;99.90;;;;;;5123343;28;20031;-61
2023/07/12 03:51:10;;;;;;;22.33;5.95;;;16.90;99.90;;;;;;5106717;27;20046;-61
2023/07/12 03:53:36;;;;;;;16.70;5.65;;;16.90;99.90;;;;;;5108956;27;20092;-63
2023/07/12 03:56:01;;;;;;;14.68;5.38;;;16.80;99.90;;;;;;5109829;27;20042;-65
2023/07/12 03:58:34;;;;;;;20.65;6.45;;;16.90;99.90;;;;;;5109881;27;20108;-64
2023/07/12 04:01:06;;;;;;;18.95;5.68;;;16.80;99.90;;;;;;5115101;27;20127;-64
2023/07/12 04:03:32;;;;;;;17.55;6.28;;;16.80;99.90;;;;;;5089615;28;20051;-64
2023/07/12 04:05:58;;;;;;;18.35;5.85;;;16.80;99.90;;;;;;5060596;27;20061;-62
2023/07/12 04:08:24;;;;;;;13.93;5.32;;;16.80;99.90;;;;;;5108730;27;20043;-61
2023/07/12 04:10:53;;;;;;;16.30;5.95;;;16.80;99.90;;;;;;5128037;27;20542;-63
2023/07/12 04:13:19;;;;;;;16.30;5.35;;;16.80;99.90;;;;;;5110124;27;20490;-63
2023/07/12 04:15:45;;;;;;;17.42;5.90;;;16.80;99.90;;;;;;5109176;27;20043;-64
2023/07/12 04:18:11;;;;;;;18.10;6.03;;;16.80;99.90;;;;;;5110340;27;20084;-63
2023/07/12 04:20:38;;;;;;;25.67;6.70;;;16.70;99.90;;;;;;5110065;27;20039;-62
2023/07/12 04:23:07;;;;;;;18.38;6.50;;;16.80;99.90;;;;;;5127364;27;20047;-66
2023/07/12 04:25:33;;;;;;;15.68;5.88;;;16.70;99.90;;;;;;5092026;27;20039;-67
2023/07/12 04:27:59;;;;;;;18.35;6.72;;;16.70;99.90;;;;;;5108303;27;20045;-62
2023/07/12 04:30:24;;;;;;;22.65;7.05;;;16.70;99.90;;;;;;5092880;27;20043;-64
2023/07/12 04:32:52;;;;;;;19.40;6.85;;;16.70;99.90;;;;;;5108800;27;20031;-63
2023/07/12 04:35:18;;;;;;;16.63;7.00;;;16.70;99.90;;;;;;5127552;27;20035;-62
2023/07/12 04:37:45;;;;;;;23.77;6.05;;;16.70;99.90;;;;;;5127254;27;20525;-63
2023/07/12 04:40:12;;;;;;;18.27;6.72;;;16.70;99.90;;;;;;5109105;27;20073;-62
2023/07/12 04:42:37;;;;;;;20.20;6.32;;;16.70;99.90;;;;;;5108843;27;20047;-63
2023/07/12 04:45:04;;;;;;;16.77;6.10;;;16.80;99.90;;;;;;5109446;27;20039;-63
2023/07/12 04:47:30;;;;;;;20.88;5.07;;;16.80;99.90;;;;;;5101619;27;20073;-62
2023/07/12 04:49:56;;;;;;;19.05;6.82;;;16.80;99.90;;;;;;5088572;27;20790;-62
2023/07/12 04:52:21;;;;;;;22.05;6.32;;;16.80;99.90;;;;;;5117640;27;20055;-63
2023/07/12 04:54:47;;;;;;;19.95;7.15;;;16.80;99.90;;;;;;5115879;27;20292;-62
2023/07/12 04:57:13;;;;;;;20.35;6.45;;;16.90;99.90;;;;;;5101611;27;20051;-63
2023/07/12 04:59:41;;;;;;;15.88;5.90;;;16.80;99.90;;;;;;5118450;27;20043;-63
2023/07/12 05:02:07;;;;;;;17.52;6.30;;;16.80;99.90;;;;;;5108454;27;20051;-64
2023/07/12 05:04:32;;;;;;;17.63;6.53;;;16.80;99.90;;;;;;5126299;27;20047;-62
2023/07/12 05:06:58;;;;;;;17.63;6.35;;;16.90;99.90;;;;;;5107498;27;20039;-64
2023/07/12 05:09:24;;;;;;;19.02;6.18;;;16.90;99.90;;;;;;5092239;27;20314;-63
2023/07/12 05:11:51;;;;;;;22.55;6.65;;;16.80;99.90;;;;;;5122981;27;20686;-67
2023/07/12 05:14:17;;;;;;;17.80;6.43;;;16.80;99.90;;;;;;5103987;27;20121;-64
2023/07/12 05:16:42;;;;;;;18.33;5.75;;;16.90;99.90;;;;;;5107276;27;20058;-67
2023/07/12 05:19:08;;;;;;;17.73;7.00;;;16.80;99.90;;;;;;5099410;27;20039;-65
2023/07/12 05:21:34;;;;;;;18.40;6.47;;;16.90;99.90;;;;;;5099804;27;20132;-64
2023/07/12 05:23:59;;;;;;;20.02;7.25;;;16.90;99.90;;;;;;5117214;27;20035;-65
2023/07/12 05:26:25;;;;;;;20.83;6.38;;;16.90;99.90;;;;;;5120424;27;20041;-66
2023/07/12 05:28:51;;;;;;;15.32;6.25;;;16.90;99.90;;;;;;5091137;27;20061;-68
2023/07/12 05:31:17;;;;;;;17.60;6.03;;;16.90;99.90;;;;;;5106571;27;20047;-63
2023/07/12 05:33:44;;;;;;;15.43;6.15;;;16.90;99.90;;;;;;5108264;27;20407;-66
2023/07/12 05:36:10;;;;;;;17.40;6.47;;;17.00;99.90;;;;;;5123920;27;20113;-66
2023/07/12 05:38:36;;;;;;;23.70;6.43;;;17.00;99.90;;;;;;5095332;27;20058;-64
2023/07/12 05:41:02;;;;;;;16.33;6.22;;;17.10;99.90;;;;;;5073875;28;20051;-65
2023/07/12 05:43:28;;;;;;;20.08;6.50;;;17.10;99.90;;;;;;5090523;28;20739;-62
2023/07/12 05:45:56;;;;;;;20.48;6.68;;;17.10;99.90;;;;;;5098443;27;20414;-63
2023/07/12 05:48:22;;;;;;;20.92;6.55;;;17.20;99.90;;;;;;5091516;27;20057;-65
2023/07/12 05:50:53;;;;;;;18.80;7.43;;;17.20;99.90;;;;;;5087904;28;20513;-66
2023/07/12 05:53:19;;;;;;;19.45;6.85;;;17.30;99.90;;;;;;5094715;27;20395;-63
2023/07/12 05:55:45;;;;;;;19.58;7.00;;;17.30;99.90;;;;;;5125738;27;20051;-67
2023/07/12 05:58:11;;;;;;;18.50;6.75;;;17.20;99.90;;;;;;5088896;27;20058;-65
2023/07/12 06:00:37;;;;;;;16.13;5.75;;;17.30;99.90;;;;;;5102831;28;20050;-67
2023/07/12 06:03:05;;;;;;;18.58;6.53;;;17.30;99.90;;;;;;5103409;27;20039;-66
2023/07/12 06:05:32;;;;;;;20.98;6.82;;;17.30;99.90;;;;;;5125784;27;20062;-65
2023/07/12 06:07:57;;;;;;;16.25;6.40;;;17.20;99.90;;;;;;5119594;27;20110;-64
2023/07/12 06:10:23;;;;;;;28.77;7.70;;;17.20;99.90;;;;;;5096718;27;20537;-64
2023/07/12 06:12:49;;;;;;;18.23;5.88;;;17.20;99.90;;;;;;5092016;28;20043;-67
2023/07/12 06:15:15;;;;;;;16.77;6.55;;;17.20;99.90;;;;;;5097530;27;20046;-75
2023/07/12 06:17:40;;;;;;;21.40;6.68;;;17.20;99.90;;;;;;5103747;27;20123;-68
2023/07/12 06:20:07;;;;;;;22.85;7.03;;;17.30;99.90;;;;;;5088970;28;20039;-67
2023/07/12 06:22:33;;;;;;;18.58;6.93;;;17.30;99.90;;;;;;5101928;27;20150;-65
2023/07/12 06:24:59;;;;;;;19.15;7.25;;;17.40;99.90;;;;;;5125123;27;20122;-63
2023/07/12 06:27:25;;;;;;;18.33;6.22;;;17.40;99.90;;;;;;5105405;27;20039;-65
2023/07/12 06:29:51;;;;;;;25.20;7.75;;;17.60;99.90;;;;;;5107014;27;20043;-70
2023/07/12 06:32:17;;;;;;;14.77;7.03;;;17.70;99.90;;;;;;5105842;27;20037;-64
2023/07/12 06:34:42;;;;;;;24.38;7.40;;;17.80;99.90;;;;;;5125947;27;20476;-66
2023/07/12 06:37:08;;;;;;;19.25;6.97;;;17.90;99.90;;;;;;5125316;27;20438;-68
2023/07/12 06:39:38;;;;;;;22.60;7.55;;;18.00;99.90;;;;;;5106662;27;20042;-68
2023/07/12 06:42:04;;;;;;;22.30;6.80;;;18.20;99.90;;;;;;5106307;27;20055;-67
2023/07/12 06:44:30;;;;;;;17.80;6.72;;;18.30;99.90;;;;;;5107534;27;20065;-66
2023/07/12 06:46:56;;;;;;;18.48;7.10;;;18.50;99.90;;;;;;5105234;27;20043;-66
2023/07/12 06:49:21;;;;;;;18.20;5.68;;;18.50;99.90;;;;;;5090024;27;20046;-64
2023/07/12 06:51:47;;;;;;;17.63;5.97;;;18.70;99.90;;;;;;5106155;27;20386;-64
2023/07/12 06:54:14;;;;;;;15.73;5.40;;;18.80;99.90;;;;;;5124436;27;20141;-64
2023/07/12 06:56:40;;;;;;;17.73;5.22;;;18.90;99.90;;;;;;5106880;27;20057;-66
2023/07/12 06:59:06;;;;;;;23.05;5.25;;;19.00;99.90;;;;;;5106624;27;20070;-67
2023/07/12 07:01:32;;;;;;;14.40;5.07;;;19.00;99.90;;;;;;5105402;27;20168;-64
2023/07/12 07:03:57;;;;;;;15.20;4.82;;;19.10;99.90;;;;;;5106439;27;20055;-63
2023/07/12 07:06:24;;;;;;;15.60;4.90;;;19.10;99.90;;;;;;5107090;27;20057;-68
2023/07/12 07:08:50;;;;;;;14.32;4.82;;;19.10;99.90;;;;;;5105684;27;20546;-69
2023/07/12 07:11:17;;;;;;;16.02;4.97;;;19.10;99.90;;;;;;5123891;27;20107;-67
2023/07/12 07:13:43;;;;;;;15.68;5.18;;;19.20;99.90;;;;;;5106368;27;20070;-66
2023/07/12 07:16:09;;;;;;;11.93;4.35;;;19.20;99.90;;;;;;5106347;27;20039;-67
2023/07/12 07:18:35;;;;;;;15.98;4.95;;;19.20;99.90;;;;;;5085552;28;20089;-65
2023/07/12 07:21:03;;;;;;;16.73;4.78;;;19.10;99.90;;;;;;5069872;28;20036;-63
2023/07/12 07:23:28;;;;;;;14.50;4.50;;;19.10;99.90;;;;;;5094255;27;20058;-65
2023/07/12 07:25:54;;;;;;;13.93;4.90;;;19.10;99.90;;;;;;5105983;27;20114;-66
2023/07/12 07:28:20;;;;;;;13.98;4.68;;;19.10;99.90;;;;;;5124386;28;20084;-68
2023/07/12 07:30:54;;;;;;;17.58;4.63;;;19.00;99.90;;;;;;5106091;28;20122;-69
2023/07/12 07:33:19;;;;;;;19.92;4.55;;;18.90;99.90;;;;;;5105499;28;20039;-64
2023/07/12 07:35:45;;;;;;;18.75;4.90;;;18.90;99.90;;;;;;5125470;28;20366;-65
2023/07/12 07:38:13;;;;;;;17.90;5.20;;;18.90;99.90;;;;;;5101977;28;20392;-65
2023/07/12 07:40:40;;;;;;;16.63;5.13;;;18.90;99.90;;;;;;5105973;28;20047;-67
2023/07/12 07:43:07;;;;;;;15.52;4.50;;;19.00;99.90;;;;;;5106783;28;20708;-68
2023/07/12 07:45:32;;;;;;;17.63;4.90;;;19.10;99.90;;;;;;5105348;28;20050;-65
2023/07/12 07:47:58;;;;;;;19.02;5.40;;;19.20;99.90;;;;;;5103829;28;20039;-66
2023/07/12 07:50:24;;;;;;;20.17;5.13;;;19.10;99.90;;;;;;5125366;28;20073;-66
2023/07/12 07:52:52;;;;;;;18.45;4.60;;;19.00;99.90;;;;;;5087864;28;21085;-65
2023/07/12 07:55:18;;;;;;;15.65;4.57;;;19.00;99.90;;;;;;5105967;28;20055;-61
2023/07/12 07:57:44;;;;;;;15.55;4.95;;;19.00;99.90;;;;;;5123652;28;20401;-68
2023/07/12 08:00:11;;;;;;;15.68;5.20;;;19.10;99.90;;;;;;5124229;28;20447;-67
2023/07/12 08:02:37;;;;;;;18.13;4.82;;;19.10;99.90;;;;;;5124171;28;20536;-67
2023/07/12 08:05:03;;;;;;;17.17;4.47;;;19.10;99.90;;;;;;5089033;28;20097;-66
2023/07/12 08:07:29;;;;;;;17.17;4.88;;;19.10;99.90;;;;;;5088130;28;20490;-68
2023/07/12 08:09:54;;;;;;;14.18;4.85;;;19.10;99.90;;;;;;5105955;28;20043;-62
2023/07/12 08:12:20;;;;;;;13.75;4.93;;;19.00;99.90;;;;;;5123779;28;20524;-68
2023/07/12 08:14:45;;;;;;;16.42;4.95;;;18.80;99.90;;;;;;5089066;28;20154;-66
2023/07/12 08:17:11;;;;;;;18.48;5.43;;;18.70;99.90;;;;;;5123450;28;20039;-66
2023/07/12 08:19:37;;;;;;;18.38;6.10;;;18.60;99.90;;;;;;5106234;28;20061;-67
2023/07/12 08:22:02;;;;;;;17.05;5.40;;;18.50;99.90;;;;;;5124866;28;20086;-64
2023/07/12 08:24:28;;;;;;;18.70;5.68;;;18.50;99.90;;;;;;5088051;28;20040;-66
2023/07/12 08:26:53;;;;;;;16.30;5.30;;;18.40;99.90;;;;;;5120014;28;20066;-65
2023/07/12 08:29:19;;;;;;;18.50;5.50;;;18.40;99.90;;;;;;5106033;28;20070;-65
2023/07/12 08:31:44;;;;;;;16.13;5.72;;;18.40;99.90;;;;;;5122422;28;20084;-63
2023/07/12 08:34:10;;;;;;;13.38;6.22;;;18.30;99.90;;;;;;5105625;28;20054;-64
2023/07/12 08:36:36;;;;;;;15.48;5.50;;;18.30;99.90;;;;;;5124521;28;20047;-63
2023/07/12 08:39:01;;;;;;;11.55;4.95;;;18.30;99.90;;;;;;5124224;27;20092;-64
2023/07/12 08:41:29;;;;;;;13.23;4.30;;;18.30;99.90;;;;;;5109257;27;20126;-66
2023/07/12 08:43:55;;;;;;;16.92;4.70;;;18.30;99.90;;;;;;5125180;27;20094;-67
2023/07/12 08:46:24;;;;;;;14.60;4.70;;;18.40;99.90;;;;;;5127469;27;20027;-66
2023/07/12 08:49:00;;;;;;;14.95;4.93;;;18.60;99.90;;;;;;5109072;27;20039;-67
2023/07/12 08:51:35;;;;;;;17.42;5.18;;;18.80;99.90;;;;;;5109841;27;20039;-64
2023/07/12 08:54:01;;;;;;;15.43;5.20;;;18.90;99.90;;;;;;5126897;27;20047;-62
2023/07/12 08:56:27;;;;;;;15.18;5.30;;;18.90;99.90;;;;;;5127309;27;20035;-66
2023/07/12 08:58:54;;;;;;;20.88;6.10;;;18.90;99.90;;;;;;5108514;27;20074;-64
2023/07/12 09:01:46;;;;;;;19.83;6.03;;;18.80;99.90;;;;;;5108470;27;20055;-64
2023/07/12 09:04:23;;;;;;;14.88;5.43;;;18.80;99.90;;;;;;5109074;27;20205;-66
2023/07/12 09:06:57;;;;;;;16.25;6.00;;;18.70;99.90;;;;;;5092168;27;20043;-62
2023/07/12 09:09:24;;;;;;;14.20;5.28;;;18.60;99.90;;;;;;5107563;27;20035;-64
2023/07/12 09:11:49;;;;;;;14.98;5.00;;;18.50;99.90;;;;;;5107988;27;20039;-64
2023/07/12 09:14:18;;;;;;;14.45;4.80;;;18.40;99.90;;;;;;5107939;27;20065;-61
2023/07/12 09:16:49;;;;;;;15.32;5.57;;;18.40;99.90;;;;;;5126055;27;20054;-66
2023/07/12 09:19:27;;;;;;;18.00;5.95;;;18.50;99.90;;;;;;5108556;27;20672;-61
2023/07/12 09:21:58;;;;;;;16.38;6.10;;;18.70;99.90;;;;;;5090849;27;20118;-64
2023/07/12 09:24:31;;;;;;;16.65;5.88;;;18.90;99.90;;;;;;5107420;27;20111;-60
2023/07/12 09:27:22;;;;;;;24.20;5.20;;;19.00;99.90;;;;;;5107333;27;20043;-65
2023/07/12 09:29:48;;;;;;;15.10;5.28;;;19.10;99.90;;;;;;5127705;27;20031;-62
2023/07/12 09:32:33;;;;;;;12.27;4.70;;;19.10;99.90;;;;;;5126310;27;20046;-65
2023/07/12 09:35:00;;;;;;;15.30;5.18;;;19.10;99.90;;;;;;5091333;27;20068;-67
2023/07/12 09:37:26;;;;;;;14.00;4.50;;;19.00;99.90;;;;;;5123667;27;20039;-64
2023/07/12 09:39:57;;;;;;;14.45;5.00;;;18.90;99.90;;;;;;5108086;27;20038;-64
2023/07/12 09:42:24;;;;;;;17.85;5.00;;;18.90;99.90;;;;;;5107455;27;20098;-67
2023/07/12 09:44:50;;;;;;;16.95;4.95;;;18.90;99.90;;;;;;5108463;27;20054;-66
2023/07/12 09:47:28;;;;;;;11.88;4.32;;;18.90;99.90;;;;;;5107473;27;20087;-66
2023/07/12 09:50:01;;;;;;;14.02;5.20;;;18.90;99.90;;;;;;5107655;27;20042;-66
2023/07/12 09:52:43;;;;;;;12.70;4.15;;;18.90;99.90;;;;;;5126605;27;20065;-66
2023/07/12 09:55:22;;;;;;;11.73;3.75;;;18.90;99.90;;;;;;5070613;28;20576;-68
2023/07/12 09:57:47;;;;;;;14.25;3.72;;;19.20;99.90;;;;;;5122254;27;20035;-67
2023/07/12 10:00:19;;;;;;;12.15;4.05;;;19.30;99.90;;;;;;5090255;27;20072;-66
2023/07/12 10:03:04;;;;;;;14.48;4.38;;;19.50;99.90;;;;;;5090238;27;20062;-67
2023/07/12 10:05:29;;;;;;;;;;;19.60;99.90;;;;;;5108817;27;20047;-66
2023/07/12 10:08:03;;;;;;;14.07;3.47;;;19.80;99.90;;;;;;5124943;27;20262;-67
2023/07/12 10:10:45;;;;;;;10.90;4.03;;;19.90;99.90;;;;;;5108441;27;20043;-62
2023/07/12 10:13:33;;;;;;;10.00;3.03;;;20.00;99.90;;;;;;5091523;27;20564;-67
2023/07/12 10:16:02;;;;;;;8.93;2.63;;;20.30;99.90;;;;;;5106880;27;20172;-63
2023/07/12 10:18:32;;;;;;;12.93;2.80;;;20.40;99.90;;;;;;5125161;27;20849;-64
2023/07/12 10:20:59;;;;;;;8.52;2.40;;;20.50;99.90;;;;;;5091193;27;20039;-64
2023/07/12 10:23:29;;;;;;;9.00;2.85;;;20.60;99.90;;;;;;5124787;27;20095;-70
2023/07/12 10:25:58;;;;;;;10.48;3.10;;;20.60;99.90;;;;;;5106864;27;20047;-64
2023/07/12 10:28:45;;;;;;;13.30;2.80;;;20.60;99.90;;;;;;5124602;27;20043;-67
2023/07/12 10:31:48;;;;;;;9.52;2.40;;;20.70;99.90;;;;;;5125838;27;20157;-67
2023/07/12 10:34:19;;;;;;;10.65;2.83;;;20.80;99.90;;;;;;5087105;28;20044;-67
2023/07/12 10:36:51;;;;;;;10.45;2.53;;;20.80;99.90;;;;;;5104878;28;20043;-68
2023/07/12 10:39:17;;;;;;;6.18;2.08;;;20.70;99.90;;;;;;5119736;27;20528;-68
2023/07/12 10:41:49;;;;;;;10.40;2.53;;;20.70;99.90;;;;;;5106613;27;20046;-65
2023/07/12 10:44:22;;;;;;;7.88;2.17;;;20.80;99.90;;;;;;5107481;27;20122;-66
2023/07/12 10:46:59;;;;;;;8.55;2.33;;;20.90;99.90;;;;;;5123623;27;20445;-65
2023/07/12 10:49:46;;;;;;;8.30;2.25;;;21.00;99.90;;;;;;5107285;27;20043;-64
2023/07/12 10:52:11;;;;;;;7.53;2.42;;;21.10;99.90;;;;;;5124780;27;20131;-66
2023/07/12 10:54:37;;;;;;;11.38;2.40;;;21.20;99.90;;;;;;5106174;27;20137;-67
2023/07/12 10:57:23;;;;;;;7.55;2.40;;;21.20;99.90;;;;;;5087627;27;20039;-66
2023/07/12 10:59:59;;;;;;;8.20;2.75;;;21.10;99.90;;;;;;5086789;28;20491;-66
2023/07/12 11:02:29;;;;;;;9.93;2.50;;;21.00;99.90;;;;;;5095513;27;20063;-69
2023/07/12 11:04:55;;;;;;;12.68;2.50;;;20.90;99.90;;;;;;5125754;27;20069;-65
2023/07/12 11:07:20;;;;;;;9.07;2.10;;;20.80;99.90;;;;;;5124151;27;20035;-65
2023/07/12 11:09:48;;;;;;;7.40;1.92;;;20.90;99.90;;;;;;5106251;27;20100;-66
2023/07/12 11:12:26;;;;;;;6.15;1.88;;;21.00;99.90;;;;;;5105708;27;20047;-68
2023/07/12 11:15:09;;;;;;;8.23;1.80;;;21.10;99.90;;;;;;5107210;27;20108;-69
2023/07/12 11:18:20;;;;;;;8.25;1.70;;;21.10;99.90;;;;;;5124305;27;20047;-66
2023/07/12 11:21:06;;;;;;;8.77;2.20;;;21.10;99.90;;;;;;5089782;27;20043;-66
2023/07/12 11:23:38;;;;;;;8.57;2.15;;;21.10;99.90;;;;;;5105783;28;20676;-66
2023/07/12 11:26:29;;;;;;;8.95;2.40;;;21.20;99.90;;;;;;5105719;28;20036;-69
2023/07/12 11:29:32;;;;;;;10.90;2.40;;;21.10;99.90;;;;;;5105574;28;20788;-66
2023/07/12 11:32:15;;;;;;;6.47;2.25;;;21.00;99.90;;;;;;5036793;28;20125;-67
2023/07/12 11:34:44;;;;;;;7.38;2.50;;;20.80;99.90;;;;;;5125028;28;20042;-64
2023/07/12 11:37:21;;;;;;;7.35;2.03;;;20.80;99.90;;;;;;5123979;28;20281;-72
2023/07/12 11:39:47;;;;;;;6.75;1.95;;;20.80;99.90;;;;;;5105027;28;20195;-69
2023/07/12 11:42:24;;;;;;;9.88;2.17;;;20.90;99.90;;;;;;5105303;28;20043;-68
2023/07/12 11:45:12;;;;;;;8.10;2.17;;;21.10;99.90;;;;;;5106849;28;20126;-65
2023/07/12 11:47:42;;;;;;;5.35;1.70;;;21.20;99.90;;;;;;5123353;28;20639;-63
2023/07/12 11:50:16;;;;;;;9.15;2.58;;;21.20;99.90;;;;;;5106485;28;20092;-66
2023/07/12 11:52:42;;;;;;;6.45;1.50;;;21.10;99.90;;;;;;5105587;28;20074;-67
2023/07/12 11:55:18;;;;;;;7.55;1.52;;;21.10;99.90;;;;;;5105689;28;20509;-66
2023/07/12 11:57:45;;;;;;;7.93;2.28;;;21.20;99.90;;;;;;5087306;28;20043;-67
2023/07/12 12:00:18;;;;;;;5.90;1.58;;;21.40;99.90;;;;;;5124874;28;20046;-68
2023/07/12 12:02:51;;;;;;;7.47;1.80;;;21.60;99.90;;;;;;5105127;28;20086;-70
2023/07/12 12:05:25;;;;;;;5.38;1.65;;;21.70;99.90;;;;;;5125204;28;20512;-66
2023/07/12 12:07:56;;;;;;;8.80;1.95;;;21.70;99.90;;;;;;5104622;28;20054;-66
2023/07/12 12:10:34;;;;;;;7.07;1.27;;;21.80;99.90;;;;;;5106065;28;20416;-65
2023/07/12 12:12:59;;;;;;;4.45;1.50;;;21.90;99.90;;;;;;5107196;27;20035;-68
2023/07/12 12:15:32;;;;;;;7.18;1.55;;;22.00;99.90;;;;;;5110517;27;20104;-68
2023/07/12 12:18:05;;;;;;;7.80;1.48;;;21.90;99.90;;;;;;5107798;27;20386;-66
2023/07/12 12:20:31;;;;;;;4.45;1.00;;;21.70;99.90;;;;;;5109815;27;20043;-70
2023/07/12 12:23:15;;;;;;;4.55;1.45;;;21.50;99.90;;;;;;5126957;27;20501;-69
2023/07/12 12:25:51;;;;;;;;;;;21.40;99.90;;;;;;5109978;27;20756;-70
2023/07/12 12:28:38;;;;;;;3.40;1.10;;;21.40;98.60;;;;;;5091492;27;19930;-65
2023/07/12 12:31:19;;;;;;;3.55;1.10;;;21.40;99.90;;;;;;5110038;27;20091;-65
2023/07/12 12:33:51;;;;;;;8.27;1.38;;;21.40;99.90;;;;;;5123034;27;20047;-64
2023/07/12 12:36:24;;;;;;;4.90;1.70;;;21.60;99.90;;;;;;5107705;28;20417;-67
2023/07/12 12:39:06;;;;;;;3.97;1.30;;;21.80;99.90;;;;;;5099481;27;20076;-67
2023/07/12 12:41:35;;;;;;;7.43;1.30;;;21.90;99.90;;;;;;5108931;27;20108;-67
2023/07/12 12:44:16;;;;;;;9.23;1.27;;;21.90;99.90;;;;;;5127900;27;20510;-68
2023/07/12 12:46:44;;;;;;;5.38;1.40;;;21.80;99.90;;;;;;5108442;27;20039;-68
2023/07/12 12:49:29;;;;;;;6.97;1.30;;;21.80;99.90;;;;;;5109276;27;20069;-67